Sharon, New Hampshire
Current Conditions -  °F | °C
As of 10:52 PM on Sunday 23 Nov 2014 (Local Time) from KAFN Reporting Station
Clear Clear  
Wind Chill: 31°   Ceiling: Unl
Heat Index: 31°   Visibility: 10mi
Dew Point: 29°   Wind: 0mph
Humidity: 92%   Direction: NA
Pressure: 30.08"   Gusts: NA
Location:  42.8756°N, 71.9378°W
Report Text: KAFN 240352Z AUTO 00000KT 10SM CLR M01/M02 A3008 RMK AO2 SLP198 T10061017
Loading
Personal Weather Stations






























Interactive Weather Map New forecast layout! Learn more

10-Day Weather Forecast

Advertisements
Track Severe Weather on mobile